createdAt,value
2024-04-25T00:00:08.093Z,33.4
2024-04-25T00:00:39.242Z,33.4
2024-04-25T00:01:10.138Z,33.4
2024-04-25T00:01:41.103Z,31.0
2024-04-25T00:02:12.102Z,31.0
2024-04-25T00:02:43.169Z,31.0
2024-04-25T00:03:14.146Z,31.0
2024-04-25T00:03:45.081Z,31.0
2024-04-25T00:04:16.125Z,27.3
2024-04-25T00:04:47.101Z,27.3
2024-04-25T00:05:18.731Z,27.3
2024-04-25T00:05:49.090Z,27.3
2024-04-25T00:06:20.102Z,27.3
2024-04-25T00:07:22.095Z,31.4
2024-04-25T00:07:53.084Z,31.4
2024-04-25T00:08:24.124Z,31.4
2024-04-25T00:09:26.081Z,31.4
2024-04-25T00:09:57.087Z,31.4
2024-04-25T00:10:28.092Z,31.6
2024-04-25T00:10:59.118Z,31.6
2024-04-25T00:11:30.139Z,31.6
2024-04-25T00:12:01.183Z,31.6
2024-04-25T00:12:32.100Z,31.6
2024-04-25T00:13:03.102Z,31.6
2024-04-25T00:13:34.106Z,34.1
2024-04-25T00:14:05.121Z,34.1
2024-04-25T00:14:36.126Z,34.1
2024-04-25T00:15:07.101Z,34.1
2024-04-25T00:15:38.092Z,34.1
2024-04-25T00:16:09.109Z,34.1
2024-04-25T00:17:11.146Z,30.6
2024-04-25T00:17:42.192Z,30.6
2024-04-25T00:18:13.106Z,30.6
2024-04-25T00:18:44.107Z,30.6
2024-04-25T00:19:15.106Z,30.6
2024-04-25T00:19:46.106Z,30.6
2024-04-25T00:20:17.178Z,30.6
2024-04-25T00:20:48.104Z,30.6
2024-04-25T00:21:19.094Z,30.6
2024-04-25T00:21:50.097Z,30.6
2024-04-25T00:22:21.099Z,33.1
2024-04-25T00:22:52.107Z,33.1
2024-04-25T00:23:23.146Z,33.1
2024-04-25T00:23:54.099Z,33.1
2024-04-25T00:24:56.098Z,33.1
2024-04-25T00:25:27.109Z,32.1
2024-04-25T00:25:58.121Z,32.1
2024-04-25T00:26:29.162Z,32.1
2024-04-25T00:27:00.111Z,32.1
2024-04-25T00:27:31.114Z,32.1
2024-04-25T00:28:02.112Z,32.1
2024-04-25T00:28:33.149Z,32.9
2024-04-25T00:29:04.138Z,32.9
2024-04-25T00:29:35.176Z,32.9
2024-04-25T00:30:06.124Z,32.9
2024-04-25T00:30:37.123Z,32.9
2024-04-25T00:31:08.125Z,32.9
2024-04-25T00:32:41.167Z,33.7
2024-04-25T00:33:12.194Z,33.7
2024-04-25T00:33:43.193Z,33.7
2024-04-25T00:34:45.115Z,33.0
2024-04-25T00:35:16.150Z,33.0
2024-04-25T00:35:47.140Z,33.0
2024-04-25T00:36:18.124Z,33.0
2024-04-25T00:36:49.120Z,33.0
2024-04-25T00:37:20.116Z,33.3
2024-04-25T00:37:51.121Z,33.3
2024-04-25T00:38:22.165Z,33.3
2024-04-25T00:38:53.134Z,33.3
2024-04-25T00:39:24.128Z,33.3
2024-04-25T00:39:55.142Z,33.3
2024-04-25T00:40:26.118Z,29.1
2024-04-25T00:40:57.129Z,29.1
2024-04-25T00:41:28.143Z,29.1
2024-04-25T00:41:59.143Z,29.1
2024-04-25T00:42:30.123Z,29.1
2024-04-25T00:43:01.128Z,29.1
2024-04-25T00:43:32.264Z,33.0
2024-04-25T00:44:03.245Z,33.0
2024-04-25T00:44:34.249Z,33.0
2024-04-25T00:45:05.130Z,33.0
2024-04-25T00:45:36.154Z,33.0
2024-04-25T00:46:07.146Z,33.0
2024-04-25T00:47:09.250Z,32.7
2024-04-25T00:47:40.236Z,32.7
2024-04-25T00:48:11.238Z,32.7
2024-04-25T00:48:42.165Z,32.7
2024-04-25T00:49:13.149Z,32.3
2024-04-25T00:49:44.128Z,32.3
2024-04-25T00:50:15.182Z,32.3
2024-04-25T00:50:46.146Z,32.3
2024-04-25T00:51:17.151Z,32.3
2024-04-25T00:51:48.136Z,32.3
2024-04-25T00:52:19.149Z,36.7
2024-04-25T00:52:50.146Z,36.7
2024-04-25T00:53:21.160Z,36.7
2024-04-25T00:53:52.179Z,36.7
2024-04-25T00:54:23.140Z,36.7
2024-04-25T00:54:54.139Z,36.7
2024-04-25T00:55:25.135Z,29.5
2024-04-25T00:55:56.138Z,29.5
2024-04-25T00:56:27.176Z,29.5
2024-04-25T00:56:58.139Z,29.5
2024-04-25T00:58:00.154Z,29.5
2024-04-25T00:58:31.158Z,28.8
2024-04-25T00:59:02.147Z,28.8
2024-04-25T01:00:04.138Z,28.8
2024-04-25T01:00:35.164Z,28.8
2024-04-25T01:01:06.200Z,28.8
2024-04-25T01:02:08.146Z,30.5
2024-04-25T01:02:39.164Z,30.5
2024-04-25T01:03:10.190Z,30.5
2024-04-25T01:03:41.190Z,30.5
2024-04-25T01:04:12.149Z,30.4
2024-04-25T01:04:43.143Z,30.4
2024-04-25T01:05:14.164Z,30.4
2024-04-25T01:05:45.185Z,30.4
2024-04-25T01:06:16.166Z,30.4
2024-04-25T01:06:47.165Z,30.4
2024-04-25T01:07:18.166Z,31.6
2024-04-25T01:07:49.158Z,31.6
2024-04-25T01:08:20.151Z,31.6
2024-04-25T01:08:51.140Z,31.6
2024-04-25T01:09:53.146Z,31.6
2024-04-25T01:10:24.178Z,28.2
2024-04-25T01:10:55.151Z,28.2
2024-04-25T01:11:26.270Z,28.2
2024-04-25T01:11:57.208Z,28.2
2024-04-25T01:12:28.160Z,28.2
2024-04-25T01:12:59.150Z,28.2
2024-04-25T01:13:30.160Z,33.1
2024-04-25T01:14:01.144Z,33.1
2024-04-25T01:14:32.148Z,33.1
2024-04-25T01:15:03.156Z,33.1
2024-04-25T01:15:34.167Z,33.1
2024-04-25T01:16:05.202Z,33.1
2024-04-25T01:16:36.216Z,32.1
2024-04-25T01:17:07.174Z,32.1
2024-04-25T01:17:38.191Z,32.1
2024-04-25T01:18:09.194Z,32.1
2024-04-25T01:18:40.154Z,32.1
2024-04-25T01:19:11.157Z,32.1
2024-04-25T01:19:42.174Z,32.6
2024-04-25T01:20:13.169Z,32.6
2024-04-25T01:20:44.217Z,32.6
2024-04-25T01:21:15.163Z,32.6
2024-04-25T01:21:46.156Z,32.6
2024-04-25T01:22:17.185Z,31.5
2024-04-25T01:23:19.181Z,31.5
2024-04-25T01:23:50.158Z,31.5
2024-04-25T01:25:23.171Z,34.0
2024-04-25T01:25:54.173Z,34.0
2024-04-25T01:26:25.250Z,34.0
2024-04-25T01:26:56.167Z,34.0
2024-04-25T01:27:27.171Z,34.0
2024-04-25T01:27:58.164Z,34.0
2024-04-25T01:28:29.165Z,27.9
2024-04-25T01:29:00.170Z,27.9
2024-04-25T01:29:31.215Z,27.9
2024-04-25T01:30:02.182Z,27.9
2024-04-25T01:30:33.172Z,27.9
2024-04-25T01:31:04.250Z,27.9
2024-04-25T01:31:35.173Z,32.5
2024-04-25T01:32:06.193Z,32.5
2024-04-25T01:32:37.322Z,31.3
2024-04-25T01:33:08.217Z,31.3
2024-04-25T01:33:39.223Z,31.3
2024-04-25T01:36:14.213Z,30.9
2024-04-25T01:37:16.170Z,30.9
2024-04-25T01:38:49.180Z,32.1
2024-04-25T01:39:51.184Z,32.1
2024-04-25T01:40:53.234Z,32.1
2024-04-25T01:41:24.199Z,33.5
2024-04-25T01:41:55.175Z,33.5
2024-04-25T01:42:26.193Z,33.5
2024-04-25T01:42:57.174Z,33.5
2024-04-25T01:43:28.186Z,33.5
2024-04-25T01:43:59.176Z,33.5
2024-04-25T01:44:30.276Z,30.9
2024-04-25T01:45:01.178Z,30.9
2024-04-25T01:45:32.179Z,30.9
2024-04-25T01:46:03.183Z,30.9
2024-04-25T01:47:05.226Z,30.9
2024-04-25T01:47:36.256Z,33.0
2024-04-25T01:48:07.288Z,33.0
2024-04-25T01:48:38.272Z,33.0
2024-04-25T01:49:09.274Z,33.0
2024-04-25T01:49:40.186Z,33.0
2024-04-25T01:50:11.191Z,33.0
2024-04-25T01:50:42.210Z,29.9
2024-04-25T01:51:13.202Z,29.9
2024-04-25T01:51:44.190Z,29.9
2024-04-25T01:52:15.187Z,29.9
2024-04-25T01:52:46.186Z,29.9
2024-04-25T01:53:17.218Z,29.1
2024-04-25T01:53:48.183Z,29.1
2024-04-25T01:54:50.196Z,29.1
2024-04-25T01:55:21.184Z,29.1
2024-04-25T01:55:52.194Z,29.1
2024-04-25T01:56:23.263Z,29.1
2024-04-25T01:56:54.198Z,29.1
2024-04-25T01:57:25.191Z,29.1
2024-04-25T01:57:56.221Z,29.1
2024-04-25T01:58:27.189Z,29.1
2024-04-25T01:58:58.200Z,29.1
2024-04-25T02:00:00.339Z,30.1
2024-04-25T02:00:31.198Z,30.1
2024-04-25T02:01:02.205Z,30.1
2024-04-25T02:02:04.316Z,30.1
2024-04-25T02:02:35.255Z,29.4
2024-04-25T02:03:06.238Z,29.4
2024-04-25T02:03:37.242Z,29.4
2024-04-25T02:04:08.234Z,29.4
2024-04-25T02:04:39.202Z,29.4
2024-04-25T02:05:10.208Z,29.4
2024-04-25T02:05:43.139Z,27.5
2024-04-25T02:06:12.205Z,27.5
2024-04-25T02:06:43.205Z,27.5
2024-04-25T02:07:14.206Z,27.5
2024-04-25T02:07:45.208Z,27.5
2024-04-25T02:08:16.226Z,33.3
2024-04-25T02:08:47.236Z,33.3
2024-04-25T02:09:49.221Z,33.3
2024-04-25T02:10:20.215Z,33.3
2024-04-25T02:10:51.207Z,33.3
2024-04-25T02:11:22.232Z,29.1
2024-04-25T02:11:53.264Z,29.1
2024-04-25T02:12:24.219Z,29.1
2024-04-25T02:12:55.220Z,29.1
2024-04-25T02:13:26.214Z,29.1
2024-04-25T02:13:57.220Z,29.1
2024-04-25T02:14:28.222Z,27.6
2024-04-25T02:14:59.234Z,27.6
2024-04-25T02:15:30.217Z,27.6
2024-04-25T02:16:01.271Z,27.6
2024-04-25T02:16:32.200Z,27.6
2024-04-25T02:17:03.221Z,27.6
2024-04-25T02:17:34.285Z,28.8
2024-04-25T02:18:05.280Z,28.8
2024-04-25T02:18:36.294Z,28.8
2024-04-25T02:19:07.207Z,28.8
2024-04-25T02:19:38.212Z,28.8
2024-04-25T02:20:09.226Z,28.8
2024-04-25T02:20:40.243Z,31.0
2024-04-25T02:21:11.211Z,31.0
2024-04-25T02:21:42.222Z,31.0
2024-04-25T02:22:13.218Z,31.0
2024-04-25T02:22:44.222Z,31.0
2024-04-25T02:23:15.230Z,28.9
2024-04-25T02:23:46.213Z,28.9
2024-04-25T02:24:48.212Z,29.3
2024-04-25T02:25:19.225Z,29.3
2024-04-25T02:25:50.217Z,29.3
2024-04-25T02:26:21.238Z,34.0
2024-04-25T02:26:52.247Z,34.0
2024-04-25T02:27:23.235Z,32.3
2024-04-25T02:27:54.221Z,32.3
2024-04-25T02:28:25.232Z,32.3
2024-04-25T02:28:56.212Z,32.3
2024-04-25T02:29:27.282Z,22.5
2024-04-25T02:29:58.207Z,22.5
2024-04-25T02:30:29.254Z,30.2
2024-04-25T02:31:00.213Z,30.2
2024-04-25T02:31:31.223Z,30.2
2024-04-25T02:32:02.324Z,30.2
2024-04-25T02:32:33.336Z,26.8
2024-04-25T02:33:35.260Z,29.7
2024-04-25T02:34:06.242Z,29.7
2024-04-25T02:34:37.235Z,29.7
2024-04-25T02:35:39.246Z,29.7
2024-04-25T02:36:10.215Z,29.7
2024-04-25T02:36:41.206Z,31.1
2024-04-25T02:37:12.234Z,31.1
2024-04-25T02:37:43.228Z,31.1
2024-04-25T02:38:14.248Z,31.1
2024-04-25T02:38:45.235Z,31.1
2024-04-25T02:39:47.261Z,30.2
2024-04-25T02:40:18.226Z,30.2
2024-04-25T02:40:49.249Z,30.2
2024-04-25T02:41:20.264Z,30.2
2024-04-25T02:41:51.238Z,30.2
2024-04-25T02:42:22.216Z,38.5
2024-04-25T02:42:53.230Z,38.5
2024-04-25T02:43:24.221Z,38.5
2024-04-25T02:43:55.242Z,38.5
2024-04-25T02:44:26.245Z,38.5
2024-04-25T02:44:57.238Z,38.5
2024-04-25T02:45:28.224Z,37.0
2024-04-25T02:45:59.234Z,37.0
2024-04-25T02:47:01.222Z,37.0
2024-04-25T02:47:32.314Z,37.0
2024-04-25T02:48:03.417Z,37.0
2024-04-25T02:48:34.261Z,32.8
2024-04-25T02:49:05.230Z,32.8
2024-04-25T02:49:36.224Z,32.8
2024-04-25T02:50:07.253Z,32.8
2024-04-25T02:50:38.229Z,32.8
2024-04-25T02:51:09.232Z,32.8
2024-04-25T02:51:40.223Z,31.5
2024-04-25T02:52:11.229Z,31.5
2024-04-25T02:52:42.223Z,31.5
2024-04-25T02:53:13.252Z,31.5
2024-04-25T02:53:44.224Z,31.5
2024-04-25T02:54:15.232Z,36.7
2024-04-25T02:54:46.229Z,36.7
2024-04-25T02:55:17.255Z,36.7
2024-04-25T02:55:48.240Z,36.7
2024-04-25T02:56:50.227Z,36.7
2024-04-25T02:57:21.222Z,33.3
2024-04-25T02:57:52.236Z,33.3
2024-04-25T02:58:54.230Z,33.3
2024-04-25T02:59:25.247Z,33.3
2024-04-25T02:59:56.239Z,33.3
2024-04-25T03:00:58.347Z,34.0
2024-04-25T03:01:29.222Z,34.0
2024-04-25T03:02:00.259Z,34.0
2024-04-25T03:02:31.441Z,34.0
2024-04-25T03:03:02.343Z,34.0
2024-04-25T03:03:33.329Z,31.3
2024-04-25T03:04:04.453Z,31.3
2024-04-25T03:04:35.244Z,31.3
2024-04-25T03:05:06.251Z,31.3
2024-04-25T03:05:37.390Z,31.3
2024-04-25T03:06:08.575Z,31.3
2024-04-25T03:06:39.229Z,32.6
2024-04-25T03:07:10.228Z,32.6
2024-04-25T03:07:41.233Z,32.6
2024-04-25T03:08:12.254Z,32.6
2024-04-25T03:08:43.255Z,32.6
2024-04-25T03:09:14.230Z,32.7
2024-04-25T03:09:45.236Z,32.7
2024-04-25T03:10:16.241Z,32.7
2024-04-25T03:10:47.264Z,32.7
2024-04-25T03:11:18.277Z,32.7
2024-04-25T03:11:49.317Z,32.7
2024-04-25T03:12:20.262Z,30.5
2024-04-25T03:12:51.263Z,30.5
2024-04-25T03:13:22.233Z,30.5
2024-04-25T03:13:53.257Z,30.5
2024-04-25T03:14:24.276Z,30.5
2024-04-25T03:14:55.230Z,30.5
2024-04-25T03:15:26.238Z,31.5
2024-04-25T03:15:57.243Z,31.5
2024-04-25T03:16:59.238Z,31.5
2024-04-25T03:17:30.351Z,31.5
2024-04-25T03:18:01.341Z,31.5
2024-04-25T03:18:32.331Z,32.5
2024-04-25T03:19:03.296Z,32.5
2024-04-25T03:19:34.237Z,32.5
2024-04-25T03:20:05.277Z,32.5
2024-04-25T03:20:36.252Z,32.5
2024-04-25T03:21:07.251Z,32.5
2024-04-25T03:22:09.258Z,31.2
2024-04-25T03:22:40.248Z,31.2
2024-04-25T03:23:11.265Z,31.2
2024-04-25T03:24:13.253Z,31.3
2024-04-25T03:24:44.245Z,31.3
2024-04-25T03:25:15.251Z,31.3
2024-04-25T03:26:17.286Z,31.3
2024-04-25T03:26:48.272Z,31.3
2024-04-25T03:27:19.250Z,26.5
2024-04-25T03:28:21.259Z,26.5
2024-04-25T03:28:52.266Z,26.5
2024-04-25T03:29:23.263Z,26.5
2024-04-25T03:29:54.250Z,26.5
2024-04-25T03:30:25.253Z,30.6
2024-04-25T03:30:56.256Z,30.6
2024-04-25T03:31:58.249Z,30.6
2024-04-25T03:32:29.436Z,30.6
2024-04-25T03:33:00.340Z,30.6
2024-04-25T03:33:31.349Z,31.2
2024-04-25T03:34:02.275Z,31.2
2024-04-25T03:34:33.251Z,31.2
2024-04-25T03:35:04.259Z,31.2
2024-04-25T03:35:35.346Z,31.2
2024-04-25T03:36:06.267Z,31.2
2024-04-25T03:36:37.262Z,28.1
2024-04-25T03:37:08.261Z,28.1
2024-04-25T03:37:39.254Z,28.1
2024-04-25T03:38:10.285Z,28.1
2024-04-25T03:38:41.301Z,28.1
2024-04-25T03:39:43.253Z,27.1
2024-04-25T03:40:14.278Z,27.1
2024-04-25T03:40:45.268Z,27.1
2024-04-25T03:41:16.292Z,27.1
2024-04-25T03:41:47.292Z,27.1
2024-04-25T03:42:18.261Z,33.5
2024-04-25T03:42:49.274Z,33.5
2024-04-25T03:43:20.277Z,33.5
2024-04-25T03:43:51.267Z,33.5
2024-04-25T03:44:22.291Z,33.5
2024-04-25T03:44:53.279Z,33.5
2024-04-25T03:45:24.268Z,24.3
2024-04-25T03:45:55.275Z,24.3
2024-04-25T03:46:57.274Z,24.3
2024-04-25T03:47:28.342Z,24.3
2024-04-25T03:47:59.323Z,24.3
2024-04-25T03:48:30.427Z,25.0
2024-04-25T03:49:01.355Z,25.0
2024-04-25T03:49:32.271Z,25.0
2024-04-25T03:50:03.291Z,25.0
2024-04-25T03:50:34.309Z,25.0
2024-04-25T03:51:05.270Z,25.0
2024-04-25T03:51:36.304Z,27.5
2024-04-25T03:52:07.272Z,27.5
2024-04-25T03:52:38.273Z,27.5
2024-04-25T03:53:11.869Z,27.5
2024-04-25T03:53:40.328Z,27.5
2024-04-25T03:54:11.291Z,27.5
2024-04-25T03:54:42.304Z,28.6
2024-04-25T03:55:44.296Z,28.6
2024-04-25T03:56:15.307Z,28.6
2024-04-25T03:56:46.311Z,28.6
2024-04-25T03:57:48.276Z,28.7
2024-04-25T03:58:19.305Z,28.7
2024-04-25T03:58:50.281Z,28.7
2024-04-25T03:59:21.317Z,28.7
2024-04-25T03:59:52.292Z,28.7
2024-04-25T04:00:23.335Z,26.0
2024-04-25T04:00:54.295Z,26.0
2024-04-25T04:01:56.294Z,26.0
2024-04-25T04:02:27.347Z,26.0
2024-04-25T04:02:58.307Z,26.0
2024-04-25T04:03:29.300Z,26.1
2024-04-25T04:04:00.337Z,26.1
2024-04-25T04:04:31.287Z,26.1
2024-04-25T04:05:02.288Z,26.1
2024-04-25T04:05:33.330Z,26.1
2024-04-25T04:06:04.306Z,26.1
2024-04-25T04:06:35.282Z,33.2
2024-04-25T04:07:06.287Z,33.2
2024-04-25T04:07:37.291Z,33.2
2024-04-25T04:08:08.320Z,33.2
2024-04-25T04:08:39.308Z,33.2
2024-04-25T04:09:41.305Z,26.4
2024-04-25T04:10:12.297Z,26.4
2024-04-25T04:10:43.302Z,26.4
2024-04-25T04:11:14.353Z,26.4
2024-04-25T04:11:45.384Z,26.4
2024-04-25T04:12:16.298Z,31.8
2024-04-25T04:12:47.314Z,31.8
2024-04-25T04:13:18.289Z,31.8
2024-04-25T04:13:49.293Z,31.8
2024-04-25T04:14:20.316Z,31.8
2024-04-25T04:14:51.308Z,31.8
2024-04-25T04:15:22.298Z,25.7
2024-04-25T04:15:53.323Z,25.7
2024-04-25T04:16:24.353Z,25.7
2024-04-25T04:16:55.287Z,25.7
2024-04-25T04:17:26.303Z,25.7
2024-04-25T04:17:57.341Z,25.7
2024-04-25T04:18:28.351Z,25.5
2024-04-25T04:18:59.304Z,25.5
2024-04-25T04:19:30.295Z,25.5
2024-04-25T04:20:01.318Z,25.5
2024-04-25T04:21:03.305Z,25.5
2024-04-25T04:21:34.292Z,24.6
2024-04-25T04:22:05.673Z,24.6
2024-04-25T04:23:07.312Z,24.6
2024-04-25T04:23:38.374Z,24.6
2024-04-25T04:24:40.304Z,29.2
2024-04-25T04:25:11.299Z,29.2
2024-04-25T04:25:42.304Z,29.2
2024-04-25T04:26:13.366Z,29.2
2024-04-25T04:26:44.326Z,29.2
2024-04-25T04:27:15.355Z,35.0
2024-04-25T04:27:46.316Z,35.0
2024-04-25T04:28:17.375Z,35.0
2024-04-25T04:28:48.312Z,35.0
2024-04-25T04:29:19.330Z,35.0
2024-04-25T04:29:50.307Z,35.0
2024-04-25T04:30:21.309Z,27.2
2024-04-25T04:30:52.316Z,27.2
2024-04-25T04:31:54.341Z,27.2
2024-04-25T04:32:25.375Z,27.2
2024-04-25T04:32:56.425Z,27.2
2024-04-25T04:33:27.425Z,34.1
2024-04-25T04:33:58.480Z,34.1
2024-04-25T04:34:29.315Z,34.1
2024-04-25T04:35:00.318Z,34.1
2024-04-25T04:35:31.333Z,34.1
2024-04-25T04:36:02.307Z,34.1
2024-04-25T04:36:33.321Z,28.2
2024-04-25T04:37:04.767Z,28.2
2024-04-25T04:37:35.388Z,28.2
2024-04-25T04:38:06.331Z,28.2
2024-04-25T04:38:37.377Z,28.2
2024-04-25T04:39:39.312Z,30.1
2024-04-25T04:40:10.341Z,30.1
2024-04-25T04:40:41.321Z,28.9
2024-04-25T04:41:12.349Z,28.9
2024-04-25T04:41:43.336Z,28.9
2024-04-25T04:42:14.329Z,34.5
2024-04-25T04:42:45.332Z,34.5
2024-04-25T04:43:16.323Z,33.8
2024-04-25T04:43:47.339Z,33.8
2024-04-25T04:44:18.329Z,33.8
2024-04-25T04:44:50.201Z,33.8
2024-04-25T04:45:20.334Z,30.5
2024-04-25T04:46:53.343Z,32.2
2024-04-25T04:47:24.392Z,32.2
2024-04-25T04:48:57.390Z,30.5
2024-04-25T04:49:28.322Z,29.5
2024-04-25T04:49:59.346Z,29.5
2024-04-25T04:50:30.379Z,29.5
2024-04-25T04:51:01.323Z,29.5
2024-04-25T04:51:32.324Z,27.9
2024-04-25T04:52:03.332Z,27.9
2024-04-25T04:52:34.322Z,29.1
2024-04-25T04:53:05.327Z,29.1
2024-04-25T04:53:36.454Z,29.1
2024-04-25T04:54:38.337Z,23.7
2024-04-25T04:55:09.329Z,23.7
2024-04-25T04:55:40.324Z,28.5
2024-04-25T04:56:42.340Z,28.5
2024-04-25T04:57:13.326Z,28.5
2024-04-25T04:57:44.333Z,28.5
2024-04-25T04:58:15.324Z,32.2
2024-04-25T04:58:46.326Z,32.2
2024-04-25T04:59:17.581Z,32.2
2024-04-25T04:59:48.323Z,32.2
2024-04-25T05:00:50.368Z,32.2
2024-04-25T05:01:21.341Z,33.1
2024-04-25T05:01:52.338Z,33.1
2024-04-25T05:02:23.396Z,33.1
2024-04-25T05:02:54.439Z,33.1
2024-04-25T05:03:25.374Z,33.1
2024-04-25T05:03:56.499Z,33.1
2024-04-25T05:04:27.346Z,29.6
2024-04-25T05:04:58.344Z,29.6
2024-04-25T05:05:29.345Z,29.6
2024-04-25T05:06:00.355Z,29.6
2024-04-25T05:06:31.334Z,29.6
2024-04-25T05:07:02.340Z,29.6
2024-04-25T05:07:33.344Z,28.4
2024-04-25T05:08:04.341Z,28.4
2024-04-25T05:08:35.415Z,28.4
2024-04-25T05:09:06.346Z,28.4
2024-04-25T05:09:37.363Z,28.4
2024-04-25T05:10:08.373Z,28.4
2024-04-25T05:10:39.335Z,34.5
2024-04-25T05:11:10.372Z,34.5
2024-04-25T05:11:41.363Z,34.5
2024-04-25T05:12:12.408Z,34.5
2024-04-25T05:12:43.337Z,34.5
2024-04-25T05:13:14.337Z,29.4
2024-04-25T05:13:45.345Z,29.4
2024-04-25T05:14:16.400Z,29.4
2024-04-25T05:14:47.359Z,29.4
2024-04-25T05:15:18.372Z,29.4
2024-04-25T05:15:49.377Z,29.4
2024-04-25T05:16:20.380Z,27.8
2024-04-25T05:16:51.357Z,27.8
2024-04-25T05:17:22.360Z,27.8
2024-04-25T05:17:53.347Z,27.8
2024-04-25T05:18:24.358Z,27.8
2024-04-25T05:18:55.344Z,27.8
2024-04-25T05:19:57.356Z,28.6
2024-04-25T05:20:28.376Z,28.6
2024-04-25T05:20:59.356Z,28.6
2024-04-25T05:22:01.358Z,28.6
2024-04-25T05:22:32.353Z,28.6
2024-04-25T05:23:03.409Z,28.6
2024-04-25T05:23:34.415Z,28.6
2024-04-25T05:24:05.345Z,28.6
2024-04-25T05:24:36.352Z,28.6
2024-04-25T05:25:07.361Z,28.6
2024-04-25T05:25:38.393Z,28.4
2024-04-25T05:26:09.384Z,28.4
2024-04-25T05:26:40.355Z,28.4
2024-04-25T05:27:11.359Z,28.4
2024-04-25T05:27:42.366Z,28.4
2024-04-25T05:28:13.364Z,29.0
2024-04-25T05:28:44.353Z,29.0
2024-04-25T05:29:15.366Z,29.0
2024-04-25T05:29:46.368Z,29.0
2024-04-25T05:30:17.389Z,29.0
2024-04-25T05:30:48.354Z,29.0
2024-04-25T05:31:50.374Z,24.6
2024-04-25T05:32:21.371Z,24.6
2024-04-25T05:32:52.440Z,24.6
2024-04-25T05:33:23.409Z,24.6
2024-04-25T05:33:54.421Z,24.6
2024-04-25T05:34:25.372Z,31.7
2024-04-25T05:34:56.434Z,31.7
2024-04-25T05:35:27.415Z,31.7
2024-04-25T05:35:58.361Z,31.7
2024-04-25T05:36:29.383Z,31.7
2024-04-25T05:37:00.394Z,31.7
2024-04-25T05:37:31.380Z,25.5
2024-04-25T05:38:02.383Z,25.5
2024-04-25T05:38:33.442Z,25.5
2024-04-25T05:39:04.377Z,25.5
2024-04-25T05:39:35.370Z,25.5
2024-04-25T05:40:06.378Z,25.5
2024-04-25T05:40:37.379Z,33.1
2024-04-25T05:41:08.389Z,33.1
2024-04-25T05:41:39.549Z,33.1
2024-04-25T05:42:10.382Z,33.1
2024-04-25T05:43:13.968Z,26.6
2024-04-25T05:43:43.373Z,26.6
2024-04-25T05:44:14.377Z,26.6
2024-04-25T05:45:16.390Z,26.6
2024-04-25T05:45:47.396Z,26.6
2024-04-25T05:46:49.403Z,24.5
2024-04-25T05:47:20.438Z,24.5
2024-04-25T05:47:51.545Z,24.5
2024-04-25T05:48:22.458Z,24.5
2024-04-25T05:48:53.423Z,24.5
2024-04-25T05:49:24.374Z,21.8
2024-04-25T05:49:55.375Z,21.8
2024-04-25T05:50:26.402Z,21.8
2024-04-25T05:50:57.415Z,21.8
2024-04-25T05:51:28.391Z,21.8
2024-04-25T05:51:59.381Z,21.8
2024-04-25T05:52:30.391Z,22.2
2024-04-25T05:53:01.377Z,22.2
2024-04-25T05:53:32.429Z,22.2
2024-04-25T05:54:03.420Z,22.2
2024-04-25T05:54:34.399Z,22.2
2024-04-25T05:55:05.379Z,22.2
2024-04-25T05:55:36.383Z,27.1
2024-04-25T05:56:07.446Z,27.1
2024-04-25T05:56:38.566Z,27.1
2024-04-25T05:57:09.377Z,27.1
2024-04-25T05:57:40.383Z,27.1
2024-04-25T05:58:11.390Z,27.1
2024-04-25T05:58:42.391Z,23.6
2024-04-25T05:59:13.430Z,23.6
2024-04-25T05:59:44.423Z,23.6
2024-04-25T06:00:15.402Z,23.6
2024-04-25T06:00:46.416Z,23.6
2024-04-25T06:01:48.392Z,23.5
2024-04-25T06:02:19.405Z,23.5
2024-04-25T06:02:50.463Z,23.5
2024-04-25T06:03:21.422Z,23.5
2024-04-25T06:03:52.438Z,23.5
2024-04-25T06:04:23.403Z,22.8
2024-04-25T06:04:54.404Z,22.8
2024-04-25T06:05:25.395Z,22.8
2024-04-25T06:05:56.393Z,22.8
2024-04-25T06:06:27.395Z,22.8
2024-04-25T06:06:58.390Z,22.8
2024-04-25T06:07:29.406Z,20.4
2024-04-25T06:08:31.432Z,20.4
2024-04-25T06:09:02.412Z,20.4
2024-04-25T06:09:33.384Z,20.4
2024-04-25T06:10:35.390Z,21.1
2024-04-25T06:11:06.468Z,21.1
2024-04-25T06:11:37.593Z,21.1
2024-04-25T06:12:39.468Z,21.1
2024-04-25T06:13:10.524Z,21.1
2024-04-25T06:13:41.397Z,21.3
2024-04-25T06:14:12.412Z,21.3
2024-04-25T06:14:43.501Z,21.3
2024-04-25T06:15:14.403Z,21.3
2024-04-25T06:15:45.403Z,21.3
2024-04-25T06:16:47.439Z,20.9
2024-04-25T06:17:18.574Z,20.9
2024-04-25T06:17:49.440Z,20.9
2024-04-25T06:18:20.474Z,20.9
2024-04-25T06:18:51.395Z,20.9
2024-04-25T06:19:22.392Z,21.4
2024-04-25T06:19:53.407Z,21.4
2024-04-25T06:20:24.430Z,21.4
2024-04-25T06:20:55.418Z,21.4
2024-04-25T06:21:26.395Z,21.4
2024-04-25T06:21:57.401Z,21.4
2024-04-25T06:22:28.394Z,20.8
2024-04-25T06:22:59.405Z,20.8
2024-04-25T06:23:30.564Z,20.8
2024-04-25T06:24:32.398Z,20.8
2024-04-25T06:25:03.398Z,20.8
2024-04-25T06:25:34.401Z,21.4
2024-04-25T06:26:05.400Z,21.4
2024-04-25T06:26:36.431Z,21.4
2024-04-25T06:27:07.392Z,21.4
2024-04-25T06:27:38.391Z,21.4
2024-04-25T06:28:09.396Z,21.4
2024-04-25T06:28:40.450Z,26.2
2024-04-25T06:29:11.484Z,26.2
2024-04-25T06:29:42.490Z,26.2
2024-04-25T06:30:13.419Z,26.2
2024-04-25T06:30:44.397Z,26.2
2024-04-25T06:31:15.406Z,20.0
2024-04-25T06:31:46.430Z,20.0
2024-04-25T06:32:17.465Z,20.0
2024-04-25T06:32:48.531Z,20.0
2024-04-25T06:33:50.538Z,20.0
2024-04-25T06:34:21.411Z,16.7
2024-04-25T06:34:52.399Z,16.7
2024-04-25T06:35:54.416Z,16.7
2024-04-25T06:36:25.399Z,16.7
2024-04-25T06:36:56.398Z,16.7
2024-04-25T06:37:58.407Z,17.2
2024-04-25T06:38:29.453Z,17.2
2024-04-25T06:40:02.406Z,17.2
2024-04-25T06:40:33.417Z,20.5
2024-04-25T06:41:04.397Z,20.5
2024-04-25T06:41:40.302Z,20.5
2024-04-25T06:42:06.430Z,20.5
2024-04-25T06:42:37.408Z,20.5
2024-04-25T06:43:08.411Z,20.5
2024-04-25T06:43:39.403Z,16.4
2024-04-25T06:44:14.558Z,16.4
2024-04-25T06:44:47.070Z,16.4
2024-04-25T06:45:12.520Z,16.4
2024-04-25T06:45:43.477Z,16.4
2024-04-25T06:46:14.427Z,16.1
2024-04-25T06:46:45.429Z,16.1
2024-04-25T06:47:16.468Z,16.1
2024-04-25T06:47:47.526Z,16.1
2024-04-25T06:48:18.544Z,16.1
2024-04-25T06:48:52.056Z,16.1
2024-04-25T06:49:20.501Z,14.8
2024-04-25T06:49:51.431Z,14.8
2024-04-25T06:50:22.451Z,14.8
2024-04-25T06:50:53.523Z,14.8
2024-04-25T06:51:24.433Z,14.8
2024-04-25T06:51:55.442Z,14.8
2024-04-25T06:52:26.434Z,15.5
2024-04-25T06:52:57.442Z,15.5
2024-04-25T06:53:28.466Z,15.5
2024-04-25T06:54:30.694Z,15.5
2024-04-25T06:55:01.429Z,15.5
2024-04-25T06:55:32.432Z,14.0
2024-04-25T06:56:03.438Z,14.0
2024-04-25T06:56:34.439Z,14.0
2024-04-25T06:57:05.487Z,14.0
2024-04-25T06:57:36.435Z,14.0
2024-04-25T06:58:07.474Z,14.0
2024-04-25T06:59:09.454Z,16.0
2024-04-25T06:59:42.296Z,16.0
2024-04-25T07:00:11.453Z,16.0
2024-04-25T07:01:44.439Z,21.7
2024-04-25T07:02:15.576Z,21.7
2024-04-25T07:03:17.562Z,21.7
2024-04-25T07:03:48.469Z,21.7
2024-04-25T07:04:19.459Z,16.4
2024-04-25T07:04:50.453Z,16.4
2024-04-25T07:05:21.449Z,16.4
2024-04-25T07:05:52.471Z,16.4
2024-04-25T07:06:23.445Z,16.4
2024-04-25T07:06:54.438Z,16.4
2024-04-25T07:07:25.448Z,11.6
2024-04-25T07:07:56.448Z,11.6
2024-04-25T07:09:29.455Z,11.6
2024-04-25T07:10:00.460Z,11.6
2024-04-25T07:10:31.447Z,12.2
2024-04-25T07:11:02.454Z,12.2
2024-04-25T07:11:33.514Z,12.2
2024-04-25T07:12:04.456Z,12.2
2024-04-25T07:12:35.465Z,12.2
2024-04-25T07:13:06.453Z,12.2
2024-04-25T07:13:37.457Z,15.7
2024-04-25T07:14:08.500Z,15.7
2024-04-25T07:14:39.532Z,15.7
2024-04-25T07:15:10.459Z,15.7
2024-04-25T07:15:41.457Z,15.7
2024-04-25T07:16:43.494Z,12.4
2024-04-25T07:17:14.502Z,12.4
2024-04-25T07:17:45.599Z,12.4
2024-04-25T07:18:16.599Z,12.4
2024-04-25T07:18:47.490Z,12.4
2024-04-25T07:19:18.466Z,14.8
2024-04-25T07:19:49.460Z,14.8
2024-04-25T07:20:20.489Z,14.5
2024-04-25T07:20:51.518Z,14.5
2024-04-25T07:21:22.456Z,14.5
2024-04-25T07:21:53.459Z,14.5
2024-04-25T07:22:24.463Z,11.7
2024-04-25T07:22:55.456Z,11.7
2024-04-25T07:23:26.465Z,11.7
2024-04-25T07:24:28.453Z,11.7
2024-04-25T07:24:59.462Z,11.7
2024-04-25T07:25:30.496Z,13.5
2024-04-25T07:26:32.470Z,13.2
2024-04-25T07:27:03.461Z,13.2
2024-04-25T07:27:34.461Z,13.2
2024-04-25T07:28:36.470Z,15.5
2024-04-25T07:29:07.508Z,15.5
2024-04-25T07:29:38.480Z,14.6
2024-04-25T07:30:09.461Z,14.6
2024-04-25T07:30:40.478Z,14.6
2024-04-25T07:31:11.459Z,14.6
2024-04-25T07:31:42.465Z,13.7
2024-04-25T07:32:44.572Z,13.4
2024-04-25T07:33:15.695Z,13.4
2024-04-25T07:33:46.553Z,13.4
2024-04-25T07:34:17.475Z,9.8
2024-04-25T07:34:48.470Z,9.8
2024-04-25T07:35:19.493Z,13.7
2024-04-25T07:35:50.534Z,13.7
2024-04-25T07:36:21.463Z,13.7
2024-04-25T07:36:52.472Z,13.7
2024-04-25T07:37:23.476Z,13.7
2024-04-25T07:37:54.472Z,13.7
2024-04-25T07:38:25.547Z,11.0
2024-04-25T07:38:56.602Z,11.0